Time;durP1;ratioP1;P1;durP2;ratioP2;P2;SDS_P1;SDS_P2;PMS_P1;PMS_P2;Temp;Humidity;BMP_temperature;BMP_pressure;BME280_temperature;BME280_humidity;BME280_pressure;Samples;Min_cycle;Max_cycle;Signal;HPM_P1;HPM_P2
2021/05/22 00:02:17;;;;;;;2.20;0.73;;;12.30;73.30;;;;;;6271349;28;20047;-78
2021/05/22 00:05:19;;;;;;;2.92;1.15;;;12.30;73.30;;;;;;6271240;28;20076;-78
2021/05/22 00:08:21;;;;;;;1.17;1.10;;;12.30;73.10;;;;;;6268341;28;20061;-77
2021/05/22 00:11:22;;;;;;;3.13;1.00;;;12.30;73.30;;;;;;6271634;28;20048;-78
2021/05/22 00:14:24;;;;;;;2.20;1.55;;;12.30;73.30;;;;;;6271015;28;20204;-77
2021/05/22 00:17:25;;;;;;;1.73;0.95;;;12.30;73.20;;;;;;6270595;28;20065;-76
2021/05/22 00:20:27;;;;;;;1.35;0.90;;;12.30;73.50;;;;;;6270755;28;20565;-77
2021/05/22 00:23:28;;;;;;;3.65;1.00;;;12.20;74.00;;;;;;6271589;28;20138;-77
2021/05/22 00:26:30;;;;;;;1.20;1.00;;;12.20;74.90;;;;;;6270897;28;20087;-78
2021/05/22 00:29:31;;;;;;;2.53;0.93;;;12.10;75.10;;;;;;6270526;28;20750;-77
2021/05/22 00:32:32;;;;;;;3.53;0.82;;;12.00;75.80;;;;;;6270934;28;20076;-78
2021/05/22 00:35:35;;;;;;;6.82;1.35;;;12.10;76.00;;;;;;6271094;28;20128;-77
2021/05/22 00:38:36;;;;;;;5.53;1.00;;;12.00;78.30;;;;;;6270442;28;20123;-77
2021/05/22 00:41:37;;;;;;;2.22;1.52;;;11.80;82.30;;;;;;6270782;28;20056;-76
2021/05/22 00:45:17;;;;;;;1.73;1.20;;;11.40;85.80;;;;;;6270729;28;20522;-76
2021/05/22 00:48:19;;;;;;;3.65;1.35;;;10.80;89.20;;;;;;6250185;28;20071;-76
2021/05/22 00:51:21;;;;;;;6.65;1.00;;;10.30;91.10;;;;;;6271159;28;20099;-77
2021/05/22 00:54:23;;;;;;;5.47;1.30;;;10.10;92.00;;;;;;6270550;28;20565;-77
2021/05/22 00:57:25;;;;;;;5.38;1.60;;;9.90;93.70;;;;;;6270310;28;20132;-77
2021/05/22 01:00:41;;;;;;;3.85;1.45;;;9.80;95.40;;;;;;6270534;28;20051;-77
2021/05/22 01:03:45;;;;;;;5.45;2.25;;;9.70;97.30;;;;;;6271088;28;20079;-77
2021/05/22 01:06:47;;;;;;;3.65;2.55;;;9.50;99.50;;;;;;6274202;28;20560;-77
2021/05/22 01:09:51;;;;;;;3.50;1.60;;;9.40;99.90;;;;;;6274465;28;20168;-77
2021/05/22 01:12:56;;;;;;;5.28;1.42;;;9.40;99.90;;;;;;6275008;28;20051;-77
2021/05/22 01:15:58;;;;;;;3.00;1.48;;;9.30;99.90;;;;;;6275215;28;20056;-77
2021/05/22 01:19:01;;;;;;;5.07;1.98;;;9.20;99.90;;;;;;6275088;28;20045;-77
2021/05/22 01:22:04;;;;;;;3.10;1.40;;;9.10;99.90;;;;;;6274852;28;20128;-78
2021/05/22 01:25:08;;;;;;;3.83;1.52;;;9.00;99.90;;;;;;6274597;28;20045;-77
2021/05/22 01:28:12;;;;;;;4.60;2.08;;;8.90;99.90;;;;;;6274584;28;20098;-78
2021/05/22 01:31:14;;;;;;;6.00;1.80;;;8.90;99.90;;;;;;6274613;28;20056;-78
2021/05/22 01:34:15;;;;;;;5.50;1.98;;;8.80;99.90;;;;;;6274085;28;20044;-77
2021/05/22 01:37:16;;;;;;;4.13;2.17;;;8.80;99.90;;;;;;6274470;28;20461;-78
2021/05/22 01:40:18;;;;;;;5.25;1.65;;;8.80;99.90;;;;;;6274310;28;20060;-78
2021/05/22 01:43:25;;;;;;;1.73;1.45;;;8.70;99.90;;;;;;6274583;28;20518;-78
2021/05/22 01:46:29;;;;;;;4.55;2.10;;;8.70;99.90;;;;;;6274697;28;20076;-78
2021/05/22 01:49:32;;;;;;;2.70;2.17;;;8.60;99.90;;;;;;6274534;28;20132;-78
2021/05/22 01:52:37;;;;;;;5.65;1.80;;;8.60;99.90;;;;;;6274364;28;20045;-77
2021/05/22 01:55:40;;;;;;;3.40;1.88;;;8.50;99.90;;;;;;6274364;28;20076;-77
2021/05/22 01:58:45;;;;;;;6.03;2.35;;;8.40;99.90;;;;;;6273527;28;20069;-77
2021/05/22 02:01:48;;;;;;;5.50;2.35;;;8.40;99.90;;;;;;6273828;28;20131;-78
2021/05/22 02:04:51;;;;;;;7.03;2.65;;;8.30;99.90;;;;;;6274002;28;20068;-77
2021/05/22 02:07:55;;;;;;;6.88;2.63;;;8.30;99.90;;;;;;6273861;28;20076;-77
2021/05/22 02:10:57;;;;;;;2.33;1.90;;;8.30;99.90;;;;;;6273895;28;20462;-78
2021/05/22 02:14:02;;;;;;;4.40;2.53;;;8.30;99.90;;;;;;6273452;28;20484;-78
2021/05/22 02:17:06;;;;;;;3.10;1.80;;;8.30;99.90;;;;;;6273519;28;20049;-78
2021/05/22 02:20:10;;;;;;;7.15;2.90;;;8.30;99.90;;;;;;6273162;28;20683;-77
2021/05/22 02:23:14;;;;;;;4.95;3.70;;;8.30;99.90;;;;;;6273750;28;20453;-77
2021/05/22 02:26:16;;;;;;;5.50;2.47;;;8.30;99.90;;;;;;6273288;28;20049;-78
2021/05/22 02:29:21;;;;;;;5.40;2.13;;;8.30;99.90;;;;;;6272756;28;20076;-77
2021/05/22 02:32:23;;;;;;;2.90;2.42;;;8.30;99.90;;;;;;6273425;28;20041;-77
2021/05/22 02:35:26;;;;;;;5.03;3.17;;;8.40;99.90;;;;;;6273372;28;20418;-78
2021/05/22 02:38:30;;;;;;;4.35;1.90;;;8.50;99.90;;;;;;6272515;28;20466;-77
2021/05/22 02:41:32;;;;;;;5.28;2.33;;;8.50;99.90;;;;;;6272904;28;20126;-77
2021/05/22 02:44:35;;;;;;;3.83;1.60;;;8.60;99.90;;;;;;6272547;28;20569;-77
2021/05/22 02:47:38;;;;;;;7.13;2.42;;;8.60;99.90;;;;;;6273111;28;20533;-78
2021/05/22 02:50:40;;;;;;;5.97;2.25;;;8.60;99.90;;;;;;6272242;28;20099;-77
2021/05/22 02:53:43;;;;;;;5.20;1.85;;;8.60;99.90;;;;;;6272796;28;20574;-77
2021/05/22 02:56:45;;;;;;;2.95;2.45;;;8.50;99.90;;;;;;6272784;28;20098;-77
2021/05/22 02:59:49;;;;;;;7.95;2.08;;;8.50;99.90;;;;;;6272206;28;20072;-77
2021/05/22 03:02:51;;;;;;;5.15;2.33;;;8.50;99.90;;;;;;6272294;28;20133;-77
2021/05/22 03:05:52;;;;;;;4.15;1.90;;;8.50;99.90;;;;;;6272412;28;20048;-77
2021/05/22 03:08:53;;;;;;;4.00;2.10;;;8.50;99.90;;;;;;6271729;28;20141;-77
2021/05/22 03:11:55;;;;;;;5.40;2.28;;;8.50;99.90;;;;;;6272459;28;20091;-77
2021/05/22 03:14:57;;;;;;;5.50;2.38;;;8.50;99.90;;;;;;6272792;28;20084;-76
2021/05/22 03:17:58;;;;;;;5.47;2.30;;;8.60;99.90;;;;;;6271742;28;20482;-77
2021/05/22 03:21:00;;;;;;;12.40;5.07;;;8.60;99.90;;;;;;6271896;28;20075;-76
2021/05/22 03:24:02;;;;;;;6.55;1.85;;;8.60;99.90;;;;;;6271991;28;20136;-77
2021/05/22 03:27:04;;;;;;;5.18;2.20;;;8.60;99.90;;;;;;6271973;28;20529;-77
2021/05/22 03:30:09;;;;;;;3.63;1.98;;;8.60;99.90;;;;;;6271436;28;20080;-78
2021/05/22 03:33:10;;;;;;;4.93;2.30;;;8.60;99.90;;;;;;6271652;28;20083;-78
2021/05/22 03:36:11;;;;;;;2.33;1.95;;;8.50;99.90;;;;;;6271964;28;20045;-78
2021/05/22 03:39:13;;;;;;;4.47;2.25;;;8.50;99.90;;;;;;6271746;28;20076;-78
2021/05/22 03:42:14;;;;;;;7.57;2.25;;;8.60;99.90;;;;;;6271492;28;20081;-77
2021/05/22 03:45:17;;;;;;;8.73;2.03;;;8.60;99.90;;;;;;6271610;28;20135;-78
2021/05/22 03:48:18;;;;;;;3.83;1.92;;;8.60;99.90;;;;;;6271268;28;20083;-77
2021/05/22 03:51:19;;;;;;;7.40;2.28;;;8.60;99.90;;;;;;6271912;28;20088;-78
2021/05/22 03:54:21;;;;;;;2.17;1.95;;;8.70;99.90;;;;;;6271281;28;20134;-77
2021/05/22 03:57:22;;;;;;;4.63;3.22;;;8.80;99.90;;;;;;6271422;28;20053;-76
2021/05/22 04:00:24;;;;;;;5.20;3.28;;;8.80;99.90;;;;;;6270838;28;20501;-76
2021/05/22 04:03:26;;;;;;;4.93;1.98;;;8.70;99.90;;;;;;6273319;28;20053;-77
2021/05/22 04:06:27;;;;;;;5.72;2.10;;;8.60;99.90;;;;;;6272397;28;20107;-77
2021/05/22 04:09:28;;;;;;;4.88;2.05;;;8.60;99.90;;;;;;6274717;23;20045;-74
2021/05/22 04:12:30;;;;;;;2.95;1.88;;;8.60;99.90;;;;;;6247146;28;20128;-74
2021/05/22 04:15:32;;;;;;;7.38;2.30;;;8.50;99.90;;;;;;6247798;28;20045;-75
2021/05/22 04:18:33;;;;;;;4.90;1.73;;;8.50;99.90;;;;;;6246652;28;20863;-74
2021/05/22 04:21:35;;;;;;;4.25;1.83;;;8.50;99.90;;;;;;6247261;28;20136;-75
2021/05/22 04:24:36;;;;;;;4.80;1.75;;;8.60;99.90;;;;;;6247214;28;20120;-75
2021/05/22 04:27:37;;;;;;;3.17;1.52;;;8.60;99.90;;;;;;6247985;28;20089;-75
2021/05/22 04:30:39;;;;;;;3.30;1.63;;;8.70;99.90;;;;;;6246558;28;20056;-75
2021/05/22 04:33:41;;;;;;;2.33;1.90;;;8.80;99.90;;;;;;6247103;28;20450;-75
2021/05/22 04:36:42;;;;;;;2.30;1.48;;;8.80;99.90;;;;;;6247244;28;20124;-75
2021/05/22 04:39:43;;;;;;;4.78;3.58;;;8.90;99.90;;;;;;6247617;28;20080;-75
2021/05/22 04:42:45;;;;;;;3.47;1.80;;;9.00;99.90;;;;;;6251769;28;20085;-75
2021/05/22 04:45:47;;;;;;;4.68;1.88;;;9.10;99.90;;;;;;6251876;28;20041;-75
2021/05/22 04:48:48;;;;;;;4.60;2.80;;;9.20;99.90;;;;;;6251286;28;20544;-75
2021/05/22 04:51:50;;;;;;;3.60;1.88;;;9.30;99.90;;;;;;6251842;28;20140;-75
2021/05/22 04:54:51;;;;;;;7.63;2.10;;;9.40;99.90;;;;;;6252139;28;20049;-75
2021/05/22 04:57:53;;;;;;;3.83;1.92;;;9.50;99.90;;;;;;6251284;28;20132;-75
2021/05/22 05:00:55;;;;;;;3.05;1.65;;;9.70;99.90;;;;;;6255074;28;20501;-75
2021/05/22 05:03:56;;;;;;;4.07;1.40;;;9.90;99.90;;;;;;6252663;28;20149;-75
2021/05/22 05:06:57;;;;;;;2.80;1.73;;;10.10;99.90;;;;;;6251631;28;20136;-75
2021/05/22 05:09:59;;;;;;;2.70;1.98;;;10.20;99.90;;;;;;6250825;28;20045;-74
2021/05/22 05:13:00;;;;;;;5.13;2.38;;;10.50;99.90;;;;;;6250873;28;20081;-75
2021/05/22 05:16:03;;;;;;;1.38;1.27;;;10.80;99.90;;;;;;6251269;28;20136;-75
2021/05/22 05:19:04;;;;;;;2.38;1.65;;;11.10;99.90;;;;;;6250729;28;20137;-75
2021/05/22 05:22:05;;;;;;;16.85;5.18;;;11.30;99.90;;;;;;6251229;28;20108;-75
2021/05/22 05:25:08;;;;;;;4.05;1.48;;;11.40;99.90;;;;;;6250662;28;20628;-75
2021/05/22 05:28:10;;;;;;;5.07;1.58;;;11.50;99.90;;;;;;6251059;28;20103;-76
2021/05/22 05:31:12;;;;;;;5.88;2.72;;;11.70;99.90;;;;;;6251062;28;20096;-75
2021/05/22 05:34:13;;;;;;;4.60;1.75;;;11.80;99.20;;;;;;6250386;28;20068;-75
2021/05/22 05:37:15;;;;;;;4.85;1.20;;;12.00;98.40;;;;;;6250513;28;20135;-75
2021/05/22 05:40:19;;;;;;;1.52;1.05;;;12.20;96.90;;;;;;6250284;28;20065;-75
2021/05/22 05:43:20;;;;;;;2.40;1.50;;;12.40;95.10;;;;;;6250725;28;20554;-75
2021/05/22 05:46:23;;;;;;;4.72;1.67;;;12.50;93.60;;;;;;6250119;28;20132;-75
2021/05/22 05:49:28;;;;;;;2.88;1.40;;;12.60;92.80;;;;;;6250003;28;20081;-75
2021/05/22 05:52:29;;;;;;;4.57;1.35;;;12.90;91.60;;;;;;6249483;28;20474;-75
2021/05/22 05:55:31;;;;;;;4.47;1.13;;;13.20;89.60;;;;;;6250758;28;20060;-75
2021/05/22 05:58:33;;;;;;;2.67;1.02;;;13.40;88.30;;;;;;6249833;28;20145;-74
2021/05/22 06:01:35;;;;;;;2.97;0.98;;;13.60;86.40;;;;;;6249609;28;20049;-75
2021/05/22 06:04:36;;;;;;;2.80;1.02;;;14.30;81.30;;;;;;6237432;28;20199;-75
2021/05/22 06:07:38;;;;;;;4.20;0.85;;;;;;;;;;6250133;28;20053;-76
2021/05/22 06:10:39;;;;;;;3.92;1.38;;;15.70;73.20;;;;;;6250098;28;20518;-76
2021/05/22 06:13:41;;;;;;;5.38;1.75;;;16.20;71.20;;;;;;6240945;28;20132;-76
2021/05/22 06:16:44;;;;;;;6.10;1.75;;;16.60;68.70;;;;;;6225668;28;20121;-76
2021/05/22 06:19:46;;;;;;;2.08;1.50;;;16.80;67.50;;;;;;6224943;28;20061;-76
2021/05/22 06:22:47;;;;;;;7.45;1.95;;;17.10;66.20;;;;;;6238549;28;20045;-75
2021/05/22 06:25:49;;;;;;;2.08;1.00;;;17.30;64.70;;;;;;6249543;28;20100;-76
2021/05/22 06:28:50;;;;;;;4.15;0.75;;;17.50;63.90;;;;;;6249211;28;20247;-76
2021/05/22 06:31:52;;;;;;;6.43;1.20;;;17.60;61.90;;;;;;6249689;28;20092;-75
2021/05/22 06:34:54;;;;;;;3.58;1.75;;;17.70;61.10;;;;;;6249205;28;20088;-75
2021/05/22 06:37:55;;;;;;;3.53;1.73;;;17.80;60.10;;;;;;6248978;28;20042;-75
2021/05/22 06:40:56;;;;;;;6.95;3.15;;;17.80;59.50;;;;;;6226236;28;20046;-75
2021/05/22 06:43:58;;;;;;;7.93;1.70;;;17.60;60.50;;;;;;6224294;28;20132;-76
2021/05/22 06:47:00;;;;;;;4.55;1.52;;;;;;;;;;6224612;28;20049;-76
2021/05/22 06:50:02;;;;;;;3.00;1.52;;;16.70;59.80;;;;;;6223874;28;20080;-76
2021/05/22 06:53:04;;;;;;;6.50;1.33;;;16.30;62.30;;;;;;6224927;28;20099;-76
2021/05/22 06:56:06;;;;;;;12.20;2.28;;;16.20;62.30;;;;;;6224963;28;20115;-75
2021/05/22 06:59:07;;;;;;;4.38;1.13;;;16.20;63.20;;;;;;6224632;28;20468;-75
2021/05/22 07:02:09;;;;;;;3.10;1.00;;;16.20;62.60;;;;;;6224232;28;20050;-75
2021/05/22 07:05:12;;;;;;;2.60;1.15;;;16.40;63.50;;;;;;6224024;28;20508;-75
2021/05/22 07:08:14;;;;;;;4.35;1.50;;;16.50;63.10;;;;;;6224749;28;20129;-75
2021/05/22 07:11:16;;;;;;;3.30;1.20;;;16.70;61.80;;;;;;6225085;28;20061;-74
2021/05/22 07:14:17;;;;;;;4.25;1.00;;;16.90;61.50;;;;;;6239783;28;20045;-75
2021/05/22 07:17:19;;;;;;;5.63;1.77;;;17.00;60.60;;;;;;6248526;28;20139;-75
2021/05/22 07:20:21;;;;;;;3.67;2.03;;;17.20;60.60;;;;;;6248255;28;20065;-76
2021/05/22 07:23:22;;;;;;;3.30;1.17;;;17.30;60.20;;;;;;6248550;28;20125;-75
2021/05/22 07:26:24;;;;;;;4.68;1.38;;;17.50;59.00;;;;;;6248602;28;20079;-74
2021/05/22 07:29:26;;;;;;;3.13;1.25;;;17.40;58.20;;;;;;6248065;28;20501;-75
2021/05/22 07:32:29;;;;;;;2.92;1.10;;;17.50;58.30;;;;;;6248047;28;20048;-75
2021/05/22 07:35:30;;;;;;;5.75;1.35;;;17.80;58.10;;;;;;6249091;28;20092;-76
2021/05/22 07:38:31;;;;;;;4.00;1.20;;;17.90;57.40;;;;;;6247529;28;20589;-75
2021/05/22 07:41:33;;;;;;;3.03;1.00;;;;;;;;;;6248093;28;20072;-74
2021/05/22 07:44:34;;;;;;;6.20;1.55;;;17.90;55.80;;;;;;6248024;28;20041;-76
2021/05/22 07:47:36;;;;;;;7.15;1.13;;;18.20;54.90;;;;;;6248489;28;20529;-76
2021/05/22 07:50:38;;;;;;;7.65;1.15;;;17.70;56.30;;;;;;6247591;28;20119;-75
2021/05/22 07:53:39;;;;;;;4.07;0.90;;;17.40;56.80;;;;;;6247714;28;20538;-76
2021/05/22 07:56:40;;;;;;;2.53;0.80;;;17.80;55.70;;;;;;6247695;28;20095;-76
2021/05/22 07:59:42;;;;;;;5.40;0.70;;;18.00;55.70;;;;;;6247147;28;20132;-76
2021/05/22 08:02:44;;;;;;;3.95;1.02;;;18.30;54.50;;;;;;6247264;28;20073;-75
2021/05/22 08:05:46;;;;;;;2.75;1.17;;;18.30;54.60;;;;;;6247258;28;20049;-75
2021/05/22 08:08:47;;;;;;;3.67;1.73;;;18.00;54.10;;;;;;6246806;28;20455;-76
2021/05/22 08:11:49;;;;;;;2.15;1.20;;;17.70;53.80;;;;;;6247215;28;20500;-75
2021/05/22 08:14:50;;;;;;;3.17;1.13;;;17.40;53.80;;;;;;6227023;28;20707;-75
2021/05/22 08:17:53;;;;;;;4.00;1.20;;;17.60;52.80;;;;;;6222423;28;20103;-75
2021/05/22 08:20:55;;;;;;;5.32;1.10;;;17.70;51.70;;;;;;6223984;28;20535;-75
2021/05/22 08:23:56;;;;;;;4.93;1.40;;;17.90;51.30;;;;;;6223530;28;20054;-75
2021/05/22 08:26:58;;;;;;;2.78;1.05;;;;;;;;;;6223693;28;20054;-75
2021/05/22 08:30:00;;;;;;;4.63;1.23;;;18.40;49.00;;;;;;6225111;28;20065;-75
2021/05/22 08:33:02;;;;;;;11.48;1.48;;;18.30;49.10;;;;;;6223221;28;20049;-75
2021/05/22 08:36:05;;;;;;;6.30;1.52;;;18.10;49.40;;;;;;6225553;28;20049;-76
2021/05/22 08:39:06;;;;;;;2.85;1.00;;;18.40;48.90;;;;;;6223922;28;20096;-74
2021/05/22 08:42:08;;;;;;;5.85;1.13;;;18.60;48.60;;;;;;6222479;28;20422;-75
2021/05/22 08:45:12;;;;;;;6.57;2.90;;;18.50;49.40;;;;;;6222616;28;20049;-75
2021/05/22 08:48:16;;;;;;;9.25;2.22;;;19.00;48.50;;;;;;6222308;28;20086;-75
2021/05/22 08:51:20;;;;;;;3.72;1.83;;;19.70;46.70;;;;;;6223098;28;20077;-75
2021/05/22 08:54:21;;;;;;;0.95;0.60;;;20.50;44.40;;;;;;6223524;28;20046;-75
2021/05/22 08:57:23;;;;;;;4.50;1.48;;;21.20;43.60;;;;;;6224283;28;20069;-75
2021/05/22 09:00:27;;;;;;;7.50;0.98;;;21.70;43.00;;;;;;6224126;28;20061;-76
2021/05/22 09:03:29;;;;;;;2.78;0.65;;;22.10;42.30;;;;;;6224582;28;20053;-75
2021/05/22 09:06:31;;;;;;;3.70;1.52;;;22.60;40.30;;;;;;6225833;28;20050;-74
2021/05/22 09:09:39;;;;;;;3.50;1.42;;;23.10;39.60;;;;;;6222132;28;20389;-76
2021/05/22 09:12:42;;;;;;;4.90;1.20;;;23.20;39.30;;;;;;6224569;28;20474;-75
2021/05/22 09:15:44;;;;;;;5.68;1.10;;;22.80;39.40;;;;;;6246811;28;20140;-76
2021/05/22 09:18:46;;;;;;;2.20;0.95;;;22.60;40.10;;;;;;6246826;28;20128;-76
2021/05/22 09:21:48;;;;;;;6.28;0.82;;;23.40;39.20;;;;;;6246055;28;20049;-76
2021/05/22 09:25:00;;;;;;;5.53;1.30;;;24.20;38.80;;;;;;6245987;28;20092;-75
2021/05/22 09:28:02;;;;;;;4.57;0.98;;;24.20;36.40;;;;;;6249950;28;20046;-75
2021/05/22 09:31:05;;;;;;;1.13;0.63;;;24.20;36.00;;;;;;6249949;28;20055;-76
2021/05/22 09:34:09;;;;;;;2.95;0.75;;;23.90;36.30;;;;;;6250151;28;20073;-76
2021/05/22 09:37:12;;;;;;;3.80;1.10;;;23.30;36.70;;;;;;6250259;28;20132;-75
2021/05/22 09:40:17;;;;;;;1.15;0.55;;;23.10;37.60;;;;;;6249460;28;20131;-74
2021/05/22 09:43:18;;;;;;;3.70;1.27;;;23.10;36.20;;;;;;6250108;28;20053;-75
2021/05/22 09:46:19;;;;;;;3.90;1.92;;;22.90;37.70;;;;;;6249917;28;20069;-75
2021/05/22 09:49:23;;;;;;;1.08;0.75;;;23.10;35.50;;;;;;6249647;28;20045;-75
2021/05/22 09:52:25;;;;;;;5.13;2.22;;;;;;;;;;6249987;28;20521;-75
2021/05/22 09:55:26;;;;;;;6.30;1.17;;;23.00;35.60;;;;;;6250687;28;20176;-75
2021/05/22 09:58:34;;;;;;;3.38;0.68;;;23.20;36.00;;;;;;6249298;28;20451;-75
2021/05/22 10:01:42;;;;;;;2.78;0.82;;;23.20;35.50;;;;;;6249531;28;20073;-75
2021/05/22 10:04:44;;;;;;;2.67;0.80;;;23.00;35.60;;;;;;6249482;28;20132;-75
2021/05/22 10:07:47;;;;;;;10.40;0.82;;;22.10;37.20;;;;;;6247678;28;20136;-74
2021/05/22 10:10:50;;;;;;;2.90;0.70;;;21.60;37.90;;;;;;6243964;28;20478;-75
2021/05/22 10:13:52;;;;;;;2.25;0.70;;;21.60;38.30;;;;;;6248972;28;20045;-74
2021/05/22 10:16:54;;;;;;;1.70;0.55;;;20.80;45.10;;;;;;6247187;28;20068;-74
2021/05/22 10:19:57;;;;;;;3.30;1.17;;;21.90;35.20;;;;;;6249263;28;20053;-74
2021/05/22 10:22:58;;;;;;;5.63;0.80;;;21.80;35.10;;;;;;6249357;28;20046;-75
2021/05/22 10:26:00;;;;;;;2.83;0.60;;;21.30;36.90;;;;;;6248058;28;20132;-75
2021/05/22 10:29:01;;;;;;;4.57;0.82;;;21.10;37.40;;;;;;6249361;28;20137;-74
2021/05/22 10:32:04;;;;;;;1.48;0.93;;;21.20;34.50;;;;;;6249002;28;20077;-74
2021/05/22 10:35:10;;;;;;;2.85;0.68;;;21.00;35.90;;;;;;6249558;28;20053;-75
2021/05/22 10:38:36;;;;;;;5.10;1.52;;;20.60;37.00;;;;;;6247270;28;20088;-74
2021/05/22 10:41:38;;;;;;;3.17;0.82;;;20.50;38.00;;;;;;6248826;28;20053;-75
2021/05/22 10:44:39;;;;;;;3.03;0.50;;;20.40;37.20;;;;;;6248811;28;20055;-75
2021/05/22 10:47:41;;;;;;;4.97;0.70;;;20.30;38.60;;;;;;6248859;28;20076;-75
2021/05/22 10:50:46;;;;;;;3.03;0.85;;;20.60;39.00;;;;;;6247815;28;20077;-75
2021/05/22 10:53:54;;;;;;;1.65;1.13;;;20.70;38.30;;;;;;6248183;28;20533;-75
2021/05/22 10:57:02;;;;;;;1.27;0.75;;;20.40;38.20;;;;;;6248199;28;20054;-75
2021/05/22 11:00:23;;;;;;;10.18;0.90;;;20.20;38.90;;;;;;6248090;28;20132;-75
2021/05/22 11:03:25;;;;;;;3.30;0.90;;;20.30;38.70;;;;;;6248548;28;20148;-75
2021/05/22 11:06:39;;;;;;;4.15;0.50;;;20.50;37.90;;;;;;6248134;28;20045;-75
2021/05/22 11:09:48;;;;;;;3.28;1.38;;;20.60;38.10;;;;;;6246931;28;20049;-75
2021/05/22 11:12:50;;;;;;;2.22;0.52;;;20.80;38.10;;;;;;6241145;28;20422;-74
2021/05/22 11:15:54;;;;;;;4.80;0.73;;;20.90;36.50;;;;;;6249567;28;20192;-74
2021/05/22 11:19:03;;;;;;;2.85;0.70;;;20.90;35.80;;;;;;6247271;28;20054;-75
2021/05/22 11:22:15;;;;;;;4.07;0.82;;;20.90;36.40;;;;;;6247586;28;20080;-75
2021/05/22 11:25:18;;;;;;;2.20;0.55;;;21.00;36.70;;;;;;6247637;28;20526;-75
2021/05/22 11:28:21;;;;;;;4.50;0.75;;;21.20;36.00;;;;;;6247316;28;20048;-75
2021/05/22 11:31:32;;;;;;;2.67;0.82;;;21.20;35.80;;;;;;6247685;28;20080;-75
2021/05/22 11:34:34;;;;;;;7.95;0.88;;;21.20;36.10;;;;;;6247070;28;20073;-75
2021/05/22 11:37:36;;;;;;;4.07;0.80;;;21.10;35.80;;;;;;6247418;28;20056;-76
2021/05/22 11:40:48;;;;;;;1.00;0.57;;;20.90;36.40;;;;;;6247255;28;20128;-76
2021/05/22 11:43:49;;;;;;;2.05;0.50;;;20.90;36.80;;;;;;6247828;28;20089;-75
2021/05/22 11:46:52;;;;;;;3.47;1.40;;;20.90;36.60;;;;;;6247138;28;20123;-75
2021/05/22 11:49:53;;;;;;;8.13;1.20;;;20.70;36.70;;;;;;6246287;28;20065;-75
2021/05/22 11:52:55;;;;;;;5.55;1.65;;;20.40;37.10;;;;;;6247133;28;20526;-75
2021/05/22 11:55:57;;;;;;;3.63;1.33;;;20.10;38.40;;;;;;6246991;28;20085;-74
2021/05/22 11:59:00;;;;;;;3.03;1.50;;;20.10;38.80;;;;;;6246771;28;20598;-75
2021/05/22 12:02:01;;;;;;;4.28;2.67;;;20.20;38.60;;;;;;6246555;28;20049;-75
2021/05/22 12:05:04;;;;;;;2.45;0.98;;;20.40;38.80;;;;;;6247044;28;20069;-76
2021/05/22 12:08:14;;;;;;;0.80;0.70;;;20.50;38.60;;;;;;6246539;28;20450;-75
2021/05/22 12:11:17;;;;;;;2.55;1.50;;;20.70;37.80;;;;;;6245777;28;20049;-75
2021/05/22 12:14:19;;;;;;;5.05;1.60;;;20.80;37.90;;;;;;6240577;28;20076;-75
2021/05/22 12:17:20;;;;;;;2.67;1.50;;;20.90;38.20;;;;;;6246827;28;20446;-76
2021/05/22 12:20:23;;;;;;;2.45;1.13;;;20.90;38.10;;;;;;6246398;28;20037;-75
2021/05/22 12:23:28;;;;;;;4.18;0.50;;;20.70;39.60;;;;;;6246724;28;20499;-75
2021/05/22 12:26:29;;;;;;;2.20;0.60;;;20.50;40.60;;;;;;6246635;28;20052;-75
2021/05/22 12:29:32;;;;;;;3.22;0.40;;;20.50;40.70;;;;;;6246043;28;20038;-75
2021/05/22 12:32:33;;;;;;;2.38;1.65;;;20.30;40.60;;;;;;6246024;28;20048;-75
2021/05/22 12:35:35;;;;;;;2.72;0.40;;;20.10;40.80;;;;;;6246576;28;20184;-75
2021/05/22 12:38:38;;;;;;;2.00;1.48;;;19.90;41.10;;;;;;6245901;28;20073;-75
2021/05/22 12:41:40;;;;;;;3.85;2.97;;;19.60;42.30;;;;;;6246015;28;20128;-75
2021/05/22 12:44:41;;;;;;;1.63;0.88;;;19.60;42.90;;;;;;6246242;28;20469;-75
2021/05/22 12:47:45;;;;;;;1.95;1.10;;;19.70;43.60;;;;;;6246649;28;20184;-75
2021/05/22 12:50:46;;;;;;;4.13;0.68;;;19.90;43.80;;;;;;6245776;28;20627;-75
2021/05/22 12:53:49;;;;;;;1.45;0.45;;;20.10;41.90;;;;;;6246085;28;20046;-74
2021/05/22 12:57:04;;;;;;;2.10;0.40;;;20.20;41.40;;;;;;6246026;28;20046;-76
2021/05/22 13:00:12;;;;;;;3.42;0.50;;;20.10;39.50;;;;;;6245299;28;20041;-75
2021/05/22 13:03:13;;;;;;;1.13;0.40;;;19.90;40.10;;;;;;6251184;28;20065;-75
2021/05/22 13:06:25;;;;;;;1.63;0.85;;;20.00;40.50;;;;;;6250356;28;20459;-77
2021/05/22 13:09:28;;;;;;;2.72;0.65;;;20.10;39.40;;;;;;6256182;28;20132;-74
2021/05/22 13:12:31;;;;;;;0.55;0.40;;;19.90;39.50;;;;;;6252370;28;20114;-75
2021/05/22 13:15:36;;;;;;;2.42;0.50;;;19.90;40.40;;;;;;6250827;28;20053;-75
2021/05/22 13:18:39;;;;;;;1.88;0.50;;;19.80;39.80;;;;;;6250330;28;20081;-76
2021/05/22 13:21:40;;;;;;;0.90;0.47;;;19.80;40.30;;;;;;6250397;28;20055;-74
2021/05/22 13:25:03;;;;;;;0.77;0.50;;;19.90;41.00;;;;;;6250827;28;20072;-76
2021/05/22 13:28:07;;;;;;;3.92;1.05;;;20.20;40.50;;;;;;6250478;28;20060;-76
2021/05/22 13:31:12;;;;;;;2.67;0.73;;;20.40;40.20;;;;;;6251141;28;20045;-75
2021/05/22 13:34:16;;;;;;;1.10;0.50;;;20.40;40.90;;;;;;6250266;28;20072;-76
2021/05/22 13:37:18;;;;;;;1.63;0.82;;;20.40;41.10;;;;;;6250323;28;20045;-76
2021/05/22 13:40:23;;;;;;;1.73;0.57;;;20.60;40.70;;;;;;6249967;28;20125;-75
2021/05/22 13:43:25;;;;;;;4.45;0.93;;;20.80;39.60;;;;;;6250100;28;20493;-76
2021/05/22 13:46:26;;;;;;;2.78;0.77;;;21.00;38.80;;;;;;6249907;28;20475;-77
2021/05/22 13:49:27;;;;;;;2.20;0.73;;;21.10;38.70;;;;;;6249687;28;20045;-75
2021/05/22 13:52:29;;;;;;;2.10;0.47;;;21.20;38.40;;;;;;6250221;28;20041;-76
2021/05/22 13:55:31;;;;;;;0.85;0.38;;;21.30;38.20;;;;;;6249871;28;20416;-75
2021/05/22 13:58:32;;;;;;;2.03;0.80;;;21.50;37.70;;;;;;6249668;28;20049;-76
2021/05/22 14:01:34;;;;;;;2.50;0.50;;;21.70;37.20;;;;;;6249528;28;20553;-74
2021/05/22 14:04:35;;;;;;;2.47;0.57;;;21.90;36.40;;;;;;6249469;28;20124;-76
2021/05/22 14:07:36;;;;;;;1.33;0.40;;;21.90;36.80;;;;;;6249738;28;20607;-76
2021/05/22 14:10:39;;;;;;;4.05;0.70;;;22.00;36.40;;;;;;6249319;28;20069;-77
2021/05/22 14:13:41;;;;;;;1.48;0.35;;;21.80;35.80;;;;;;6248076;28;20049;-76
2021/05/22 14:16:43;;;;;;;4.85;1.15;;;21.70;36.40;;;;;;6248770;28;20045;-76
2021/05/22 14:19:44;;;;;;;2.70;0.57;;;21.40;36.00;;;;;;6248893;28;20108;-75
2021/05/22 14:22:46;;;;;;;2.42;0.88;;;21.10;37.30;;;;;;6249050;28;20049;-76
2021/05/22 14:25:48;;;;;;;1.02;0.22;;;20.90;38.20;;;;;;6249056;28;20092;-75
2021/05/22 14:28:49;;;;;;;0.75;0.20;;;20.90;37.80;;;;;;6248995;28;20052;-76
2021/05/22 14:31:51;;;;;;;2.38;0.55;;;20.70;38.10;;;;;;6249255;28;20057;-76
2021/05/22 14:34:52;;;;;;;1.00;0.35;;;20.70;38.50;;;;;;6249251;28;20483;-76
2021/05/22 14:37:54;;;;;;;0.88;0.35;;;20.70;38.80;;;;;;6248497;28;20045;-75
2021/05/22 14:40:56;;;;;;;1.75;0.50;;;20.60;38.50;;;;;;6248479;28;20530;-76
2021/05/22 14:43:57;;;;;;;3.45;0.70;;;20.70;38.70;;;;;;6248848;28;20175;-75
2021/05/22 14:46:59;;;;;;;2.08;0.65;;;20.60;38.20;;;;;;6249179;28;20096;-76
2021/05/22 14:50:00;;;;;;;0.90;0.40;;;20.50;38.70;;;;;;6247976;28;20073;-75
2021/05/22 14:53:01;;;;;;;3.33;1.63;;;20.40;38.90;;;;;;6248688;28;20523;-76
2021/05/22 14:56:04;;;;;;;0.50;0.28;;;20.40;40.30;;;;;;6248205;28;20049;-76
2021/05/22 14:59:06;;;;;;;4.55;1.02;;;20.50;40.20;;;;;;6247959;28;20482;-76
2021/05/22 15:02:08;;;;;;;0.20;0.20;;;20.50;40.10;;;;;;6248897;28;20088;-75
2021/05/22 15:05:10;;;;;;;2.15;1.35;;;20.50;39.40;;;;;;6248392;28;20099;-75
2021/05/22 15:08:11;;;;;;;2.22;1.27;;;20.40;39.70;;;;;;6248145;28;20053;-76
2021/05/22 15:11:13;;;;;;;3.50;0.57;;;20.40;38.20;;;;;;6247672;28;20045;-76
2021/05/22 15:14:15;;;;;;;0.95;0.30;;;20.40;38.90;;;;;;6247260;28;20124;-75
2021/05/22 15:17:16;;;;;;;0.35;0.35;;;20.50;38.80;;;;;;6228957;28;20053;-75
2021/05/22 15:20:18;;;;;;;0.95;0.25;;;20.50;39.10;;;;;;6223352;28;20150;-75
2021/05/22 15:23:19;;;;;;;1.90;0.43;;;20.30;39.60;;;;;;6222631;28;20084;-75
2021/05/22 15:26:21;;;;;;;1.80;0.40;;;20.10;38.90;;;;;;6223253;28;20586;-75
2021/05/22 15:29:22;;;;;;;1.30;0.50;;;20.00;39.70;;;;;;6222684;28;20041;-74
2021/05/22 15:32:24;;;;;;;0.52;0.38;;;20.10;40.20;;;;;;6223029;28;20041;-75
2021/05/22 15:35:29;;;;;;;1.75;0.50;;;20.20;40.20;;;;;;6223074;28;20092;-74
2021/05/22 15:38:33;;;;;;;1.23;0.63;;;20.20;40.50;;;;;;6223068;28;20050;-74
2021/05/22 15:41:36;;;;;;;2.20;0.85;;;20.10;40.30;;;;;;6222830;28;20046;-75
2021/05/22 15:44:37;;;;;;;2.33;0.60;;;19.80;40.70;;;;;;6222877;28;20134;-75
2021/05/22 16:01:11;;;;;;;1.65;0.50;;;20.00;41.10;;;;;;6222135;28;20544;-74
2021/05/22 16:07:36;;;;;;;3.67;0.95;;;20.20;40.90;;;;;;6222587;28;20049;-74
2021/05/22 16:10:38;;;;;;;1.40;0.70;;;20.10;41.00;;;;;;6222638;28;20116;-75
2021/05/22 16:13:40;;;;;;;2.40;1.00;;;20.10;41.60;;;;;;6232999;28;20057;-75